createdAt,value
2018-05-26T00:00:26.883Z,1014.13
2018-05-26T00:02:26.352Z,1014.13
2018-05-26T00:03:25.862Z,1014.11
2018-05-26T00:05:20.995Z,1014.07
2018-05-26T00:06:20.977Z,1014.09
2018-05-26T00:08:16.946Z,1014.05
2018-05-26T00:09:16.948Z,1014.06
2018-05-26T00:11:13.438Z,1014.12
2018-05-26T00:12:12.868Z,1014.08
2018-05-26T00:14:07.841Z,1014.14
2018-05-26T00:15:06.323Z,1014.11
2018-05-26T00:17:02.316Z,1014.10
2018-05-26T00:18:02.304Z,1014.06
2018-05-26T00:19:58.744Z,1014.08
2018-05-26T00:20:58.242Z,1014.04
2018-05-26T00:22:54.720Z,1014.06
2018-05-26T00:23:54.195Z,1014.04
2018-05-26T00:25:48.637Z,1014.04
2018-05-26T00:26:48.643Z,1014.00
2018-05-26T00:28:44.601Z,1014.06
2018-05-26T00:29:44.589Z,1014.03
2018-05-26T00:31:40.059Z,1014.09
2018-05-26T00:32:39.555Z,1014.10
2018-05-26T00:34:34.978Z,1014.11
2018-05-26T00:35:34.972Z,1014.05
2018-05-26T00:37:31.437Z,1014.05
2018-05-26T00:38:30.921Z,1014.06
2018-05-26T00:40:26.902Z,1014.09
2018-05-26T00:41:26.891Z,1014.08
2018-05-26T00:43:23.357Z,1014.14
2018-05-26T00:44:22.849Z,1014.12
2018-05-26T00:46:18.835Z,1014.12
2018-05-26T00:47:18.794Z,1014.15
2018-05-26T00:49:14.777Z,1014.13
2018-05-26T00:50:15.758Z,1014.15
2018-05-26T00:52:12.241Z,1014.17
2018-05-26T00:53:10.736Z,1014.17
2018-05-26T00:55:07.182Z,1014.12
2018-05-26T00:56:06.675Z,1014.16
2018-05-26T00:58:02.650Z,1014.18
2018-05-26T00:59:02.654Z,1014.12
2018-05-26T01:00:58.640Z,1014.15
2018-05-26T01:01:57.085Z,1014.15
2018-05-26T01:03:53.036Z,1014.16
2018-05-26T01:04:53.556Z,1014.23
2018-05-26T01:06:47.525Z,1014.20
2018-05-26T01:07:47.505Z,1014.22
2018-05-26T01:09:43.461Z,1014.23
2018-05-26T01:10:43.960Z,1014.20
2018-05-26T01:12:40.929Z,1014.24
2018-05-26T01:13:39.916Z,1014.23
2018-05-26T01:15:38.376Z,1014.25
2018-05-26T01:16:38.380Z,1014.23
2018-05-26T01:18:35.023Z,1014.27
2018-05-26T01:19:33.528Z,1014.25
2018-05-26T01:21:29.442Z,1014.23
2018-05-26T01:22:29.447Z,1014.22
2018-05-26T01:24:25.370Z,1014.19
2018-05-26T01:25:25.903Z,1014.19
2018-05-26T01:27:22.351Z,1014.14
2018-05-26T01:28:21.349Z,1014.12
2018-05-26T01:30:17.313Z,1014.10
2018-05-26T01:31:17.325Z,1014.14
2018-05-26T01:33:13.264Z,1014.16
2018-05-26T01:34:13.295Z,1014.16
2018-05-26T01:36:09.255Z,1014.20
2018-05-26T01:37:09.242Z,1014.16
2018-05-26T01:39:08.209Z,1014.17
2018-05-26T01:40:07.354Z,1014.17
2018-05-26T01:42:05.359Z,1014.12
2018-05-26T01:43:05.317Z,1014.14
2018-05-26T01:45:03.307Z,1014.14
2018-05-26T01:46:04.277Z,1014.11
2018-05-26T01:47:59.753Z,1014.12
2018-05-26T01:48:59.246Z,1014.14
2018-05-26T01:50:55.154Z,1014.10
2018-05-26T01:51:55.165Z,1014.06
2018-05-26T01:53:51.616Z,1014.05
2018-05-26T01:54:51.626Z,1014.05
2018-05-26T01:56:47.588Z,1014.00
2018-05-26T01:57:47.569Z,1014.05
2018-05-26T01:59:42.021Z,1014.01
2018-05-26T02:00:41.505Z,1014.00
2018-05-26T02:02:37.468Z,1013.98
2018-05-26T02:03:37.463Z,1014.00
2018-05-26T02:05:33.444Z,1013.98
2018-05-26T02:06:33.409Z,1013.93
2018-05-26T02:08:29.399Z,1013.95
2018-05-26T02:09:29.378Z,1013.92
2018-05-26T02:11:25.290Z,1013.93
2018-05-26T02:12:25.828Z,1013.92
2018-05-26T02:14:21.763Z,1013.95
2018-05-26T02:15:21.242Z,1013.97
2018-05-26T02:17:17.695Z,1013.96
2018-05-26T02:18:17.204Z,1013.97
2018-05-26T02:20:11.152Z,1013.97
2018-05-26T02:21:10.660Z,1014.00
2018-05-26T02:23:07.605Z,1013.97
2018-05-26T02:24:06.627Z,1014.03
2018-05-26T02:26:04.574Z,1013.99
2018-05-26T02:27:03.092Z,1013.99
2018-05-26T02:28:59.024Z,1013.95
2018-05-26T02:29:58.521Z,1013.97
2018-05-26T02:31:55.481Z,1013.94
2018-05-26T02:32:54.478Z,1013.93
2018-05-26T02:34:48.978Z,1013.93
2018-05-26T02:35:48.945Z,1013.92
2018-05-26T02:37:44.886Z,1013.95
2018-05-26T02:38:44.901Z,1013.92
2018-05-26T02:40:41.375Z,1013.97
2018-05-26T02:41:40.853Z,1013.97
2018-05-26T02:43:34.335Z,1013.96
2018-05-26T02:44:34.309Z,1013.95
2018-05-26T02:46:30.291Z,1013.97
2018-05-26T02:47:31.269Z,1013.98
2018-05-26T02:49:24.727Z,1014.00
2018-05-26T02:50:24.751Z,1014.00
2018-05-26T02:52:19.694Z,1013.96
2018-05-26T02:53:19.701Z,1014.01
2018-05-26T02:55:15.153Z,1014.05
2018-05-26T02:56:15.137Z,1014.00
2018-05-26T02:58:11.590Z,1013.98
2018-05-26T02:59:11.093Z,1013.98
2018-05-26T03:01:05.574Z,1014.00
2018-05-26T03:02:05.511Z,1013.99
2018-05-26T03:04:02.397Z,1014.06
2018-05-26T03:05:01.454Z,1013.99
2018-05-26T03:06:57.404Z,1014.05
2018-05-26T03:07:57.426Z,1014.07
2018-05-26T03:09:53.365Z,1014.10
2018-05-26T03:10:53.370Z,1014.09
2018-05-26T03:12:47.343Z,1014.06
2018-05-26T03:13:46.829Z,1014.06
2018-05-26T03:15:42.787Z,1014.07
2018-05-26T03:16:42.755Z,1014.08
2018-05-26T03:18:37.245Z,1014.05
2018-05-26T03:19:37.216Z,1014.06
2018-05-26T03:21:33.668Z,1014.08
2018-05-26T03:22:33.128Z,1014.07
2018-05-26T03:24:28.590Z,1014.05
2018-05-26T03:25:29.603Z,1014.04
2018-05-26T03:27:22.058Z,1014.06
2018-05-26T03:28:22.571Z,1014.08
2018-05-26T03:30:19.006Z,1014.12
2018-05-26T03:31:17.990Z,1014.14
2018-05-26T03:33:12.479Z,1014.12
2018-05-26T03:34:12.445Z,1014.14
2018-05-26T03:36:08.419Z,1014.16
2018-05-26T03:37:08.406Z,1014.18
2018-05-26T03:39:04.339Z,1014.20
2018-05-26T03:40:04.360Z,1014.20
2018-05-26T03:42:00.802Z,1014.27
2018-05-26T03:43:00.312Z,1014.29
2018-05-26T03:44:56.767Z,1014.25
2018-05-26T03:45:56.270Z,1014.32
2018-05-26T03:47:50.658Z,1014.31
2018-05-26T03:48:49.714Z,1014.29
2018-05-26T03:50:47.607Z,1014.24
2018-05-26T03:51:46.678Z,1014.24
2018-05-26T03:53:43.095Z,1014.25
2018-05-26T03:54:41.685Z,1014.28
2018-05-26T03:56:37.651Z,1014.23
2018-05-26T03:57:37.629Z,1014.17
2018-05-26T03:59:32.117Z,1014.23
2018-05-26T04:00:32.116Z,1014.22
2018-05-26T04:02:28.107Z,1014.25
2018-05-26T04:03:28.073Z,1014.30
2018-05-26T04:05:25.529Z,1014.30
2018-05-26T04:06:24.523Z,1014.28
2018-05-26T04:08:19.996Z,1014.34
2018-05-26T04:09:20.468Z,1014.29
2018-05-26T04:11:15.904Z,1014.29
2018-05-26T04:12:15.899Z,1014.29
2018-05-26T04:14:14.363Z,1014.30
2018-05-26T04:15:14.046Z,1014.30
2018-05-26T04:17:09.528Z,1014.32
2018-05-26T04:18:09.007Z,1014.30
2018-05-26T04:20:04.949Z,1014.34
2018-05-26T04:21:04.425Z,1014.35
2018-05-26T04:22:58.907Z,1014.37
2018-05-26T04:23:58.903Z,1014.38
2018-05-26T04:25:54.832Z,1014.43
2018-05-26T04:26:54.838Z,1014.42
2018-05-26T04:28:51.310Z,1014.40
2018-05-26T04:29:51.726Z,1014.47
2018-05-26T04:31:47.267Z,1014.47
2018-05-26T04:32:46.733Z,1014.49
2018-05-26T04:34:42.702Z,1014.52
2018-05-26T04:35:43.207Z,1014.50
2018-05-26T04:37:38.628Z,1014.52
2018-05-26T04:38:38.641Z,1014.51
2018-05-26T04:40:36.091Z,1014.54
2018-05-26T04:41:36.091Z,1014.60
2018-05-26T04:43:30.571Z,1014.58
2018-05-26T04:44:30.546Z,1014.59
2018-05-26T04:46:26.480Z,1014.59
2018-05-26T04:47:26.497Z,1014.62
2018-05-26T04:49:22.490Z,1014.62
2018-05-26T04:50:22.473Z,1014.64
2018-05-26T04:52:19.936Z,1014.72
2018-05-26T04:53:19.401Z,1014.71
2018-05-26T04:55:14.369Z,1014.76
2018-05-26T04:56:14.355Z,1014.78
2018-05-26T04:58:10.302Z,1014.79
2018-05-26T04:59:10.820Z,1014.77
2018-05-26T05:01:04.778Z,1014.80
2018-05-26T05:02:05.263Z,1014.81
2018-05-26T05:04:03.201Z,1014.85
2018-05-26T05:05:00.723Z,1014.85
2018-05-26T05:06:55.164Z,1014.94
2018-05-26T05:07:55.166Z,1014.93
2018-05-26T05:09:51.154Z,1014.87
2018-05-26T05:10:51.133Z,1014.89
2018-05-26T05:12:47.065Z,1014.89
2018-05-26T05:13:47.067Z,1014.86
2018-05-26T05:15:43.555Z,1014.91
2018-05-26T05:16:43.524Z,1014.92
2018-05-26T05:18:39.487Z,1014.96
2018-05-26T05:19:38.992Z,1015.00
2018-05-26T05:21:37.966Z,1015.03
2018-05-26T05:22:36.911Z,1015.06
2018-05-26T05:24:34.392Z,1015.01
2018-05-26T05:25:32.865Z,1015.02
2018-05-26T05:27:29.351Z,1015.05
2018-05-26T05:28:29.835Z,1015.02
2018-05-26T05:30:24.831Z,1015.02
2018-05-26T05:31:24.819Z,1015.04
2018-05-26T05:33:20.783Z,1015.05
2018-05-26T05:34:20.760Z,1015.07
2018-05-26T05:36:17.717Z,1015.11
2018-05-26T05:37:18.217Z,1015.11
2018-05-26T05:39:14.671Z,1015.09
2018-05-26T05:40:12.694Z,1015.09
2018-05-26T05:42:07.649Z,1015.05
2018-05-26T05:43:08.076Z,1015.05
2018-05-26T05:45:03.126Z,1015.12
2018-05-26T05:46:03.133Z,1015.13
2018-05-26T05:47:57.611Z,1015.23
2018-05-26T05:48:57.598Z,1015.25
2018-05-26T05:50:53.561Z,1015.25
2018-05-26T05:51:53.548Z,1015.26
2018-05-26T05:53:49.535Z,1015.29
2018-05-26T05:54:49.518Z,1015.28
2018-05-26T05:56:45.989Z,1015.30
2018-05-26T05:57:45.481Z,1015.30
2018-05-26T05:59:41.479Z,1015.28
2018-05-26T06:00:41.471Z,1015.31
2018-05-26T06:02:35.930Z,1015.36
2018-05-26T06:03:35.918Z,1015.37
2018-05-26T06:05:31.907Z,1015.38
2018-05-26T06:06:31.886Z,1015.37
2018-05-26T06:08:26.373Z,1015.43
2018-05-26T06:09:26.355Z,1015.39
2018-05-26T06:11:21.319Z,1015.40
2018-05-26T06:12:20.787Z,1015.43
2018-05-26T06:14:17.750Z,1015.42
2018-05-26T06:15:16.767Z,1015.41
2018-05-26T06:17:12.743Z,1015.43
2018-05-26T06:18:13.651Z,1015.38
2018-05-26T06:20:06.176Z,1015.40
2018-05-26T06:21:06.695Z,1015.40
2018-05-26T06:23:02.176Z,1015.36
2018-05-26T06:24:02.175Z,1015.37
2018-05-26T06:25:58.140Z,1015.36
2018-05-26T06:26:59.055Z,1015.36
2018-05-26T06:28:54.114Z,1015.35
2018-05-26T06:29:54.089Z,1015.39
2018-05-26T06:31:50.595Z,1015.42
2018-05-26T06:32:50.028Z,1015.39
2018-05-26T06:34:46.005Z,1015.38
2018-05-26T06:35:45.990Z,1015.39
2018-05-26T06:37:40.446Z,1015.43
2018-05-26T06:38:40.450Z,1015.45
2018-05-26T06:40:34.923Z,1015.46
2018-05-26T06:41:35.920Z,1015.45
2018-05-26T06:43:30.392Z,1015.47
2018-05-26T06:44:29.391Z,1015.48
2018-05-26T06:46:25.356Z,1015.45
2018-05-26T06:47:25.341Z,1015.46
2018-05-26T06:49:21.286Z,1015.39
2018-05-26T06:50:21.301Z,1015.39
2018-05-26T06:52:17.240Z,1015.38
2018-05-26T06:53:17.766Z,1015.34
2018-05-26T06:55:10.691Z,1015.33
2018-05-26T06:56:10.717Z,1015.34
2018-05-26T06:58:07.666Z,1015.35
2018-05-26T06:59:06.726Z,1015.35
2018-05-26T07:01:00.686Z,1015.38
2018-05-26T07:02:00.146Z,1015.37
2018-05-26T07:03:56.626Z,1015.35
2018-05-26T07:04:56.114Z,1015.38
2018-05-26T07:06:49.573Z,1015.31
2018-05-26T07:07:50.079Z,1015.34
2018-05-26T07:09:44.074Z,1015.33
2018-05-26T07:10:44.052Z,1015.31
2018-05-26T07:12:44.005Z,1015.33
2018-05-26T07:13:40.048Z,1015.28
2018-05-26T07:15:36.504Z,1015.27
2018-05-26T07:16:35.987Z,1015.28
2018-05-26T07:18:34.133Z,1015.28
2018-05-26T07:19:34.152Z,1015.26
2018-05-26T07:21:30.037Z,1015.26
2018-05-26T07:22:30.621Z,1015.25
2018-05-26T07:24:25.546Z,1015.23
2018-05-26T07:25:24.531Z,1015.29
2018-05-26T07:27:18.984Z,1015.27
2018-05-26T07:28:18.988Z,1015.27
2018-05-26T07:30:15.454Z,1015.28
2018-05-26T07:31:14.955Z,1015.31
2018-05-26T07:33:10.940Z,1015.30
2018-05-26T07:34:10.927Z,1015.30
2018-05-26T07:36:05.408Z,1015.27
2018-05-26T07:37:05.380Z,1015.27
2018-05-26T07:39:01.352Z,1015.21
2018-05-26T07:40:01.353Z,1015.24
2018-05-26T07:41:56.309Z,1015.28
2018-05-26T07:42:55.847Z,1015.27
2018-05-26T07:44:52.290Z,1015.29
2018-05-26T07:47:09.452Z,1015.27
2018-05-26T07:48:08.278Z,1015.25
2018-05-26T07:50:07.294Z,1015.29
2018-05-26T07:51:05.886Z,1015.29
2018-05-26T07:53:04.881Z,1015.26
2018-05-26T07:54:04.172Z,1015.29
2018-05-26T07:56:04.527Z,1015.26
2018-05-26T07:57:04.557Z,1015.28
2018-05-26T07:59:05.464Z,1015.30
2018-05-26T08:00:05.986Z,1015.29
2018-05-26T08:02:05.417Z,1015.26
2018-05-26T08:03:05.421Z,1015.25
2018-05-26T08:05:06.411Z,1015.30
2018-05-26T08:06:06.373Z,1015.28
2018-05-26T08:08:04.367Z,1015.30
2018-05-26T08:09:03.828Z,1015.28
2018-05-26T08:11:03.346Z,1015.32
2018-05-26T08:12:01.960Z,1015.35
2018-05-26T08:14:00.923Z,1015.41
2018-05-26T08:15:00.920Z,1015.38
2018-05-26T08:16:56.072Z,1015.37
2018-05-26T08:17:56.141Z,1015.39
2018-05-26T08:19:54.072Z,1015.38
2018-05-26T08:20:54.528Z,1015.40
2018-05-26T08:22:53.514Z,1015.39
2018-05-26T08:23:53.482Z,1015.40
2018-05-26T08:25:51.508Z,1015.41
2018-05-26T08:26:50.885Z,1015.42
2018-05-26T08:28:50.958Z,1015.42
2018-05-26T08:29:52.337Z,1015.42
2018-05-26T08:31:52.918Z,1015.43
2018-05-26T08:32:51.018Z,1015.43
2018-05-26T08:34:52.944Z,1015.44
2018-05-26T08:35:52.423Z,1015.37
2018-05-26T08:37:52.938Z,1015.39
2018-05-26T08:38:53.890Z,1015.42
2018-05-26T08:40:53.967Z,1015.42
2018-05-26T08:41:53.505Z,1015.44
2018-05-26T08:43:55.745Z,1015.44
2018-05-26T08:44:54.815Z,1015.46
2018-05-26T08:47:03.414Z,1015.45
2018-05-26T08:49:21.478Z,1015.47
2018-05-26T08:50:21.143Z,1015.48
2018-05-26T08:52:19.267Z,1015.47
2018-05-26T08:53:20.088Z,1015.46
2018-05-26T08:55:16.303Z,1015.45
2018-05-26T08:56:16.244Z,1015.41
2018-05-26T08:58:14.254Z,1015.41
2018-05-26T08:59:13.246Z,1015.46
2018-05-26T09:01:13.635Z,1015.38
2018-05-26T09:02:14.206Z,1015.48
2018-05-26T09:04:11.732Z,1015.41
2018-05-26T09:05:11.712Z,1015.42
2018-05-26T09:07:08.619Z,1015.44
2018-05-26T09:08:08.647Z,1015.41
2018-05-26T09:10:05.740Z,1015.38
2018-05-26T09:11:05.737Z,1015.41
2018-05-26T09:13:01.723Z,1015.33
2018-05-26T09:14:02.727Z,1015.36
2018-05-26T09:16:02.275Z,1015.35
2018-05-26T09:17:03.283Z,1015.34
2018-05-26T09:19:02.717Z,1015.34
2018-05-26T09:20:02.873Z,1015.34
2018-05-26T09:22:03.161Z,1015.25
2018-05-26T09:23:03.186Z,1015.31
2018-05-26T09:25:01.191Z,1015.26
2018-05-26T09:26:01.105Z,1015.27
2018-05-26T09:28:01.628Z,1015.28
2018-05-26T09:28:59.087Z,1015.26
2018-05-26T09:31:02.033Z,1015.24
2018-05-26T09:32:00.945Z,1015.27
2018-05-26T09:33:57.095Z,1015.29
2018-05-26T09:34:57.474Z,1015.27
2018-05-26T09:36:57.957Z,1015.32
2018-05-26T09:37:57.135Z,1015.34
2018-05-26T09:39:58.163Z,1015.40
2018-05-26T09:40:58.124Z,1015.43
2018-05-26T09:42:56.601Z,1015.38
2018-05-26T09:43:55.766Z,1015.37
2018-05-26T09:45:53.915Z,1015.35
2018-05-26T09:46:55.834Z,1015.37
2018-05-26T09:48:55.864Z,1015.36
2018-05-26T09:49:55.224Z,1015.32
2018-05-26T09:51:57.182Z,1015.32
2018-05-26T09:52:55.746Z,1015.30
2018-05-26T09:54:55.213Z,1015.29
2018-05-26T09:55:55.697Z,1015.30
2018-05-26T09:57:52.633Z,1015.28
2018-05-26T09:58:52.647Z,1015.23
2018-05-26T10:00:53.898Z,1015.21
2018-05-26T10:01:53.928Z,1015.20
2018-05-26T10:03:57.249Z,1015.16
2018-05-26T10:04:55.402Z,1015.27
2018-05-26T10:06:50.375Z,1015.24
2018-05-26T10:07:50.376Z,1015.24
2018-05-26T10:09:54.300Z,1015.22
2018-05-26T10:10:54.292Z,1015.28
2018-05-26T10:12:50.269Z,1015.26
2018-05-26T10:13:50.326Z,1015.27
2018-05-26T10:15:44.767Z,1015.25
2018-05-26T10:16:46.181Z,1015.26
2018-05-26T10:18:42.645Z,1015.29
2018-05-26T10:19:40.717Z,1015.31
2018-05-26T10:21:37.616Z,1015.29
2018-05-26T10:22:37.186Z,1015.29
2018-05-26T10:24:33.144Z,1015.19
2018-05-26T10:25:32.626Z,1015.19
2018-05-26T10:27:28.609Z,1015.19
2018-05-26T10:28:28.628Z,1015.16
2018-05-26T10:30:25.089Z,1015.18
2018-05-26T10:31:24.594Z,1015.17
2018-05-26T10:33:20.530Z,1015.14
2018-05-26T10:34:21.078Z,1015.09
2018-05-26T10:36:17.512Z,1015.14
2018-05-26T10:37:16.528Z,1015.12
2018-05-26T10:39:12.489Z,1015.10
2018-05-26T10:40:12.519Z,1015.15
2018-05-26T10:42:08.486Z,1015.14
2018-05-26T10:43:09.489Z,1015.12
2018-05-26T10:45:05.446Z,1015.07
2018-05-26T10:46:04.477Z,1015.11
2018-05-26T10:48:02.579Z,1015.11
2018-05-26T10:49:02.588Z,1015.07
2018-05-26T10:50:58.577Z,1015.05
2018-05-26T10:52:00.057Z,1015.05
2018-05-26T10:53:54.466Z,1015.00
2018-05-26T10:54:54.493Z,1015.04
2018-05-26T10:56:52.488Z,1015.01
2018-05-26T10:57:53.458Z,1014.96
2018-05-26T10:59:49.425Z,1015.00
2018-05-26T11:00:48.437Z,1015.02
2018-05-26T11:02:46.891Z,1015.05
2018-05-26T11:03:44.393Z,1015.02
2018-05-26T11:05:41.359Z,1015.03
2018-05-26T11:06:40.420Z,1015.05
2018-05-26T11:08:36.880Z,1015.02
2018-05-26T11:09:36.379Z,1015.01
2018-05-26T11:11:32.344Z,1014.97
2018-05-26T11:12:32.299Z,1015.01
2018-05-26T11:14:30.421Z,1015.09
2018-05-26T11:15:30.431Z,1015.03
2018-05-26T11:17:26.425Z,1015.02
2018-05-26T11:18:27.335Z,1015.07
2018-05-26T11:20:22.448Z,1015.06
2018-05-26T11:21:22.377Z,1015.03
2018-05-26T11:23:18.391Z,1015.06
2018-05-26T11:24:18.387Z,1015.12
2018-05-26T11:26:15.871Z,1015.08
2018-05-26T11:27:15.251Z,1015.11
2018-05-26T11:29:10.311Z,1015.14
2018-05-26T11:30:10.282Z,1015.18
2018-05-26T11:32:06.279Z,1015.12
2018-05-26T11:33:06.275Z,1015.15
2018-05-26T11:35:02.271Z,1015.13
2018-05-26T11:36:03.247Z,1015.11
2018-05-26T11:37:58.738Z,1015.07
2018-05-26T11:38:58.239Z,1015.10
2018-05-26T11:40:54.157Z,1015.09
2018-05-26T11:41:54.176Z,1015.14
2018-05-26T11:43:53.690Z,1015.09
2018-05-26T11:46:47.141Z,1015.06
2018-05-26T11:47:47.135Z,1015.08
2018-05-26T11:49:43.110Z,1015.08
2018-05-26T11:50:43.113Z,1015.05
2018-05-26T11:52:41.107Z,1015.06
2018-05-26T11:53:41.097Z,1015.06
2018-05-26T11:55:37.076Z,1015.03
2018-05-26T11:56:37.101Z,1015.04
2018-05-26T11:58:33.551Z,1015.03
2018-05-26T11:59:33.060Z,1015.05
2018-05-26T12:01:29.536Z,1015.03
2018-05-26T12:02:29.538Z,1015.04
2018-05-26T12:04:24.981Z,1015.07
2018-05-26T12:05:26.018Z,1015.01
2018-05-26T12:07:19.955Z,1015.04
2018-05-26T12:08:20.381Z,1015.01
2018-05-26T12:10:16.930Z,1014.99
2018-05-26T12:11:16.413Z,1014.99
2018-05-26T12:13:12.931Z,1015.06
2018-05-26T12:14:11.407Z,1015.11
2018-05-26T12:16:07.364Z,1015.11
2018-05-26T12:17:07.865Z,1015.09
2018-05-26T12:19:03.845Z,1015.15
2018-05-26T12:20:03.356Z,1015.12
2018-05-26T12:21:59.312Z,1015.09
2018-05-26T12:22:59.306Z,1015.10
2018-05-26T12:24:55.263Z,1015.12
2018-05-26T12:25:55.804Z,1015.07
2018-05-26T12:27:52.234Z,1015.13
2018-05-26T12:28:51.270Z,1015.14
2018-05-26T12:30:47.264Z,1015.10
2018-05-26T12:31:47.198Z,1015.08
2018-05-26T12:33:42.196Z,1015.09
2018-05-26T12:34:41.682Z,1015.10
2018-05-26T12:36:38.626Z,1014.99
2018-05-26T12:37:38.648Z,1015.02
2018-05-26T12:39:36.149Z,1015.04
2018-05-26T12:40:34.647Z,1015.02
2018-05-26T12:42:30.624Z,1015.05
2018-05-26T12:43:30.607Z,1015.02
2018-05-26T12:45:27.092Z,1015.00
2018-05-26T12:46:27.580Z,1014.99
2018-05-26T12:48:23.491Z,1014.95
2018-05-26T12:49:22.557Z,1014.95
2018-05-26T12:51:18.503Z,1014.98
2018-05-26T12:52:18.574Z,1014.94
2018-05-26T12:54:14.523Z,1014.96
2018-05-26T12:55:15.479Z,1015.01
2018-05-26T12:57:13.957Z,1015.02
2018-05-26T12:58:12.444Z,1014.98
2018-05-26T13:00:08.430Z,1014.96
2018-05-26T13:01:08.453Z,1014.97
2018-05-26T13:03:06.394Z,1014.95
2018-05-26T13:04:06.907Z,1014.93
2018-05-26T13:06:02.383Z,1014.91
2018-05-26T13:07:02.366Z,1014.92
2018-05-26T13:09:01.824Z,1014.96
2018-05-26T13:10:00.520Z,1014.92
2018-05-26T13:11:57.498Z,1014.93
2018-05-26T13:12:56.498Z,1014.90
2018-05-26T13:14:53.399Z,1014.89
2018-05-26T13:15:52.471Z,1014.91
2018-05-26T13:17:48.412Z,1014.84
2018-05-26T13:18:49.425Z,1014.86
2018-05-26T13:20:45.409Z,1014.85
2018-05-26T13:21:44.423Z,1014.84
2018-05-26T13:23:41.887Z,1014.81
2018-05-26T13:24:40.913Z,1014.81
2018-05-26T13:26:37.886Z,1014.80
2018-05-26T13:27:37.359Z,1014.78
2018-05-26T13:29:32.839Z,1014.75
2018-05-26T13:30:32.336Z,1014.77
2018-05-26T13:32:28.331Z,1014.71
2018-05-26T13:33:28.314Z,1014.71
2018-05-26T13:35:24.291Z,1014.73
2018-05-26T13:36:24.296Z,1014.73
2018-05-26T13:38:20.749Z,1014.75
2018-05-26T13:39:20.272Z,1014.73
2018-05-26T13:41:18.767Z,1014.69
2018-05-26T13:42:16.232Z,1014.67
2018-05-26T13:44:13.210Z,1014.67
2018-05-26T13:45:13.201Z,1014.64
2018-05-26T13:47:09.179Z,1014.65
2018-05-26T13:48:09.167Z,1014.62
2018-05-26T13:50:04.176Z,1014.67
2018-05-26T13:51:05.091Z,1014.64
2018-05-26T13:53:00.202Z,1014.68
2018-05-26T13:54:00.265Z,1014.64
2018-05-26T13:55:56.116Z,1014.64
2018-05-26T13:56:56.145Z,1014.64
2018-05-26T13:58:52.608Z,1014.65
2018-05-26T13:59:52.096Z,1014.64
2018-05-26T14:01:51.077Z,1014.62
2018-05-26T14:02:50.050Z,1014.61
2018-05-26T14:04:46.513Z,1014.60
2018-05-26T14:05:46.014Z,1014.61
2018-05-26T14:07:43.991Z,1014.64
2018-05-26T14:08:42.906Z,1014.58
2018-05-26T14:10:38.897Z,1014.57
2018-05-26T14:11:37.970Z,1014.57
2018-05-26T14:13:33.961Z,1014.57
2018-05-26T14:14:33.946Z,1014.55
2018-05-26T14:16:30.417Z,1014.51
2018-05-26T14:17:29.931Z,1014.51
2018-05-26T14:19:25.905Z,1014.49
2018-05-26T14:20:25.960Z,1014.49
2018-05-26T14:22:22.384Z,1014.50
2018-05-26T14:23:21.891Z,1014.49
2018-05-26T14:25:18.869Z,1014.49
2018-05-26T14:26:17.886Z,1014.49
2018-05-26T14:28:14.395Z,1014.55
2018-05-26T14:29:13.857Z,1014.51
2018-05-26T14:31:09.789Z,1014.51
2018-05-26T14:32:09.798Z,1014.47
2018-05-26T14:34:05.814Z,1014.45
2018-05-26T14:35:06.700Z,1014.42
2018-05-26T14:37:02.757Z,1014.47
2018-05-26T14:38:01.801Z,1014.47
2018-05-26T14:40:04.783Z,1014.48
2018-05-26T14:40:57.778Z,1014.49
2018-05-26T14:42:55.727Z,1014.47
2018-05-26T14:43:55.745Z,1014.51
2018-05-26T14:45:54.217Z,1014.47
2018-05-26T14:46:55.141Z,1014.39
2018-05-26T14:48:49.687Z,1014.40
2018-05-26T14:49:49.702Z,1014.39
2018-05-26T14:51:45.600Z,1014.42
2018-05-26T14:52:46.160Z,1014.47
2018-05-26T14:54:42.095Z,1014.42
2018-05-26T14:55:41.593Z,1014.43
2018-05-26T14:57:35.081Z,1014.35
2018-05-26T14:58:36.986Z,1014.37
2018-05-26T15:00:31.535Z,1014.33
2018-05-26T15:01:31.547Z,1014.34
2018-05-26T15:03:26.998Z,1014.35
2018-05-26T15:04:28.003Z,1014.36
2018-05-26T15:06:23.986Z,1014.37
2018-05-26T15:07:24.016Z,1014.38
2018-05-26T15:09:19.969Z,1014.38
2018-05-26T15:10:18.975Z,1014.41
2018-05-26T15:12:15.463Z,1014.34
2018-05-26T15:13:15.532Z,1014.40
2018-05-26T15:15:13.481Z,1014.45
2018-05-26T15:16:14.945Z,1014.41
2018-05-26T15:18:10.075Z,1014.41
2018-05-26T15:19:10.074Z,1014.40
2018-05-26T15:21:05.022Z,1014.40
2018-05-26T15:22:05.026Z,1014.34
2018-05-26T15:24:01.010Z,1014.37
2018-05-26T15:25:00.998Z,1014.39
2018-05-26T15:26:57.061Z,1014.38
2018-05-26T15:27:57.498Z,1014.40
2018-05-26T15:29:52.962Z,1014.41
2018-05-26T15:30:53.485Z,1014.43
2018-05-26T15:32:48.931Z,1014.39
2018-05-26T15:33:48.926Z,1014.41
2018-05-26T15:35:54.429Z,1014.42
2018-05-26T15:38:01.936Z,1014.35
2018-05-26T15:40:17.896Z,1014.40
2018-05-26T15:41:16.880Z,1014.39
2018-05-26T15:43:12.351Z,1014.36
2018-05-26T15:44:12.382Z,1014.37
2018-05-26T15:46:08.353Z,1014.37
2018-05-26T15:47:09.360Z,1014.36
2018-05-26T15:49:05.250Z,1014.33
2018-05-26T15:50:04.826Z,1014.28
2018-05-26T15:52:00.810Z,1014.35
2018-05-26T15:53:00.305Z,1014.33
2018-05-26T15:54:56.278Z,1014.33
2018-05-26T15:55:56.269Z,1014.33
2018-05-26T15:57:54.248Z,1014.28
2018-05-26T15:58:50.765Z,1014.24
2018-05-26T16:00:47.228Z,1014.26
2018-05-26T16:01:46.715Z,1014.26
2018-05-26T16:03:42.680Z,1014.25
2018-05-26T16:04:43.681Z,1014.28
2018-05-26T16:06:40.183Z,1014.27
2018-05-26T16:07:38.667Z,1014.27
2018-05-26T16:09:34.608Z,1014.28
2018-05-26T16:10:35.144Z,1014.32
2018-05-26T16:12:31.612Z,1014.32
2018-05-26T16:13:32.091Z,1014.31
2018-05-26T16:15:27.577Z,1014.31
2018-05-26T16:16:27.595Z,1014.34
2018-05-26T16:18:24.055Z,1014.32
2018-05-26T16:19:24.057Z,1014.27
2018-05-26T16:21:19.473Z,1014.26
2018-05-26T16:22:19.493Z,1014.26
2018-05-26T16:24:15.475Z,1014.14
2018-05-26T16:25:15.473Z,1014.20
2018-05-26T16:27:12.985Z,1014.16
2018-05-26T16:28:12.445Z,1014.17
2018-05-26T16:30:10.448Z,1014.19
2018-05-26T16:31:09.426Z,1014.19
2018-05-26T16:33:07.376Z,1014.32
2018-05-26T16:34:09.083Z,1014.33
2018-05-26T16:36:03.863Z,1014.38
2018-05-26T16:37:03.374Z,1014.34
2018-05-26T16:38:59.344Z,1014.35
2018-05-26T16:39:59.342Z,1014.41
2018-05-26T16:41:57.843Z,1014.40
2018-05-26T16:42:58.316Z,1014.43
2018-05-26T16:44:55.467Z,1014.43
2018-05-26T16:45:57.484Z,1014.48
2018-05-26T16:47:52.445Z,1014.46
2018-05-26T16:48:51.454Z,1014.49
2018-05-26T16:50:47.927Z,1014.40
2018-05-26T16:51:48.930Z,1014.24
2018-05-26T16:53:44.886Z,1014.20
2018-05-26T16:54:43.385Z,1014.16
2018-05-26T16:56:39.880Z,1014.13
2018-05-26T16:57:39.348Z,1014.14
2018-05-26T16:59:36.314Z,1014.13
2018-05-26T17:00:35.341Z,1014.11
2018-05-26T17:02:31.837Z,1014.10
2018-05-26T17:03:31.321Z,1014.12
2018-05-26T17:05:28.816Z,1014.14
2018-05-26T17:06:27.793Z,1014.12
2018-05-26T17:08:24.264Z,1014.12
2018-05-26T17:09:24.206Z,1014.10
2018-05-26T17:11:19.252Z,1014.10
2018-05-26T17:12:19.733Z,1014.16
2018-05-26T17:14:14.166Z,1014.13
2018-05-26T17:15:13.679Z,1014.14
2018-05-26T17:17:09.636Z,1014.13
2018-05-26T17:18:10.637Z,1014.13
2018-05-26T17:20:08.631Z,1014.16
2018-05-26T17:21:07.628Z,1014.14
2018-05-26T17:23:02.083Z,1014.18
2018-05-26T17:24:03.083Z,1014.20
2018-05-26T17:25:58.577Z,1014.20
2018-05-26T17:26:58.573Z,1014.16
2018-05-26T17:28:54.068Z,1014.14
2018-05-26T17:29:54.064Z,1014.14
2018-05-26T17:31:49.033Z,1014.12
2018-05-26T17:32:47.484Z,1014.11
2018-05-26T17:34:46.005Z,1014.14
2018-05-26T17:35:45.462Z,1014.16
2018-05-26T17:37:41.923Z,1014.13
2018-05-26T17:38:41.433Z,1014.13
2018-05-26T17:40:37.407Z,1014.16
2018-05-26T17:41:37.405Z,1014.14
2018-05-26T17:43:33.390Z,1014.19
2018-05-26T17:44:33.376Z,1014.15
2018-05-26T17:46:29.352Z,1014.16
2018-05-26T17:47:29.359Z,1014.19
2018-05-26T17:49:25.400Z,1014.17
2018-05-26T17:50:25.334Z,1014.15